createdAt,value
2022-11-23T00:01:55.692Z,12.15
2022-11-23T00:04:24.969Z,12.16
2022-11-23T00:06:52.988Z,12.18
2022-11-23T00:09:20.945Z,12.19
2022-11-23T00:11:48.873Z,12.17
2022-11-23T00:14:18.110Z,12.25
2022-11-23T00:16:46.005Z,12.31
2022-11-23T00:19:13.909Z,12.34
2022-11-23T00:21:41.754Z,12.35
2022-11-23T00:24:12.528Z,12.36
2022-11-23T00:26:40.446Z,12.39
2022-11-23T00:29:08.358Z,12.41
2022-11-23T00:31:37.646Z,12.47
2022-11-23T00:34:05.668Z,12.50
2022-11-23T00:36:33.504Z,12.56
2022-11-23T00:39:01.397Z,12.60
2022-11-23T00:41:29.336Z,12.62
2022-11-23T00:43:57.239Z,12.67
2022-11-23T00:46:25.673Z,12.66
2022-11-23T00:48:55.932Z,12.67
2022-11-23T00:51:24.504Z,12.68
2022-11-23T00:53:52.549Z,12.69
2022-11-23T00:56:21.494Z,12.68
2022-11-23T00:58:50.388Z,12.70
2022-11-23T01:01:18.793Z,12.69
2022-11-23T01:03:47.817Z,12.68
2022-11-23T01:06:18.264Z,12.66
2022-11-23T01:08:49.849Z,12.68
2022-11-23T01:11:17.698Z,12.66
2022-11-23T01:13:45.565Z,12.67
2022-11-23T01:16:19.505Z,12.70
2022-11-23T01:18:53.706Z,12.71
2022-11-23T01:21:22.969Z,12.69
2022-11-23T01:23:50.898Z,12.73
2022-11-23T01:26:18.816Z,12.72
2022-11-23T01:28:46.749Z,12.74
2022-11-23T01:31:15.646Z,12.76
2022-11-23T01:33:43.604Z,12.82
2022-11-23T01:36:12.712Z,12.84
2022-11-23T01:38:42.075Z,12.87
2022-11-23T01:41:10.431Z,12.87
2022-11-23T01:43:38.306Z,12.87
2022-11-23T01:46:06.479Z,12.85
2022-11-23T01:48:36.725Z,12.83
2022-11-23T01:51:06.123Z,12.85
2022-11-23T01:53:34.046Z,12.84
2022-11-23T01:56:03.862Z,12.82
2022-11-23T01:58:33.144Z,12.85
2022-11-23T02:01:01.121Z,12.89
2022-11-23T02:03:29.160Z,12.87
2022-11-23T02:06:01.386Z,12.89
2022-11-23T02:08:29.652Z,12.84
2022-11-23T02:10:57.697Z,12.95
2022-11-23T02:13:27.067Z,13.01
2022-11-23T02:15:55.101Z,13.05
2022-11-23T02:18:24.348Z,13.11
2022-11-23T02:20:52.268Z,13.19
2022-11-23T02:23:27.820Z,13.27
2022-11-23T02:25:59.623Z,13.31
2022-11-23T02:28:29.333Z,13.36
2022-11-23T02:30:57.191Z,13.29
2022-11-23T02:33:25.509Z,13.42
2022-11-23T02:35:54.840Z,13.47
2022-11-23T02:38:23.092Z,13.50
2022-11-23T02:40:50.978Z,13.52
2022-11-23T02:43:20.224Z,13.56
2022-11-23T02:45:50.770Z,13.61
2022-11-23T02:48:18.688Z,13.65
2022-11-23T02:50:46.564Z,13.69
2022-11-23T02:53:14.676Z,13.73
2022-11-23T02:55:42.549Z,13.77
2022-11-23T02:58:10.478Z,13.80
2022-11-23T03:00:39.768Z,13.83
2022-11-23T03:03:07.741Z,13.85
2022-11-23T03:05:35.679Z,13.84
2022-11-23T03:08:03.550Z,13.87
2022-11-23T03:10:31.415Z,13.88
2022-11-23T03:12:59.519Z,13.89
2022-11-23T03:15:28.539Z,13.88
2022-11-23T03:17:58.161Z,13.89
2022-11-23T03:20:26.059Z,13.86
2022-11-23T03:22:53.908Z,13.84
2022-11-23T03:25:21.772Z,13.82
2022-11-23T03:27:50.011Z,13.78
2022-11-23T03:30:17.964Z,13.76
2022-11-23T03:32:45.936Z,13.72
2022-11-23T03:35:15.275Z,13.69
2022-11-23T03:37:43.602Z,13.65
2022-11-23T03:40:12.285Z,13.64
2022-11-23T03:42:40.914Z,13.64
2022-11-23T03:45:10.476Z,13.61
2022-11-23T03:47:38.439Z,13.60
2022-11-23T03:50:07.247Z,13.60
2022-11-23T03:52:36.537Z,13.60
2022-11-23T03:55:04.736Z,13.61
2022-11-23T03:57:32.619Z,13.65
2022-11-23T04:00:00.472Z,13.68
2022-11-23T04:02:28.336Z,13.71
2022-11-23T04:04:56.205Z,13.64
2022-11-23T04:07:24.173Z,13.78
2022-11-23T04:09:53.483Z,13.80
2022-11-23T04:12:21.357Z,13.85
2022-11-23T04:14:49.292Z,13.89
2022-11-23T04:17:17.283Z,13.94
2022-11-23T04:19:45.221Z,14.03
2022-11-23T04:22:13.093Z,14.04
2022-11-23T04:24:40.948Z,14.05
2022-11-23T04:27:11.415Z,14.12
2022-11-23T04:29:39.283Z,14.16
2022-11-23T04:32:07.306Z,14.21
2022-11-23T04:34:35.218Z,14.22
2022-11-23T04:37:03.147Z,14.25
2022-11-23T04:39:31.207Z,14.26
2022-11-23T04:41:59.279Z,14.32
2022-11-23T04:44:28.523Z,14.41
2022-11-23T04:46:56.392Z,14.55
2022-11-23T04:49:24.293Z,14.70
2022-11-23T04:51:52.131Z,14.77
2022-11-23T04:54:20.051Z,14.89
2022-11-23T04:56:47.941Z,14.95
2022-11-23T04:59:15.991Z,14.93
2022-11-23T05:01:45.198Z,14.81
2022-11-23T05:04:17.638Z,14.78
2022-11-23T05:06:45.863Z,14.74
2022-11-23T05:09:13.729Z,14.74
2022-11-23T05:11:41.699Z,14.76
2022-11-23T05:14:09.564Z,14.82
2022-11-23T05:16:37.462Z,14.82
2022-11-23T05:19:06.734Z,14.83
2022-11-23T05:21:34.676Z,14.83
2022-11-23T05:24:02.632Z,14.81
2022-11-23T05:26:30.478Z,14.83
2022-11-23T05:28:58.375Z,14.82
2022-11-23T05:31:26.232Z,14.84
2022-11-23T05:33:54.120Z,14.82
2022-11-23T05:36:23.337Z,14.83
2022-11-23T05:38:51.608Z,14.87
2022-11-23T05:41:19.477Z,14.91
2022-11-23T05:43:47.359Z,14.99
2022-11-23T05:46:15.286Z,14.99
2022-11-23T05:48:43.361Z,14.75
2022-11-23T05:51:11.317Z,14.76
2022-11-23T05:53:40.617Z,14.71
2022-11-23T05:56:08.770Z,14.70
2022-11-23T05:58:36.670Z,14.71
2022-11-23T06:01:04.537Z,14.73
2022-11-23T06:03:32.524Z,14.78
2022-11-23T06:06:00.503Z,14.84
2022-11-23T06:08:28.612Z,14.89
2022-11-23T06:10:57.938Z,14.92
2022-11-23T06:13:26.005Z,14.95
2022-11-23T06:15:53.871Z,15.00
2022-11-23T06:18:21.739Z,15.04
2022-11-23T06:20:49.568Z,15.12
2022-11-23T06:23:17.489Z,15.14
2022-11-23T06:25:45.354Z,14.85
2022-11-23T06:28:14.646Z,14.47
2022-11-23T06:30:42.580Z,14.19
2022-11-23T06:33:10.581Z,13.95
2022-11-23T06:35:38.576Z,13.79
2022-11-23T06:38:06.446Z,13.70
2022-11-23T06:40:34.388Z,13.67
2022-11-23T06:43:02.357Z,13.64
2022-11-23T06:45:31.656Z,13.64
2022-11-23T06:47:59.597Z,13.65
2022-11-23T06:50:27.482Z,13.69
2022-11-23T06:52:56.766Z,13.74
2022-11-23T06:55:24.652Z,13.78
2022-11-23T06:57:52.625Z,13.83
2022-11-23T07:00:20.764Z,13.85
2022-11-23T07:02:53.737Z,13.89
2022-11-23T07:05:21.708Z,13.90
2022-11-23T07:07:49.743Z,13.94
2022-11-23T07:10:18.344Z,13.98
2022-11-23T07:12:46.263Z,13.98
2022-11-23T07:15:15.008Z,14.04
2022-11-23T07:17:44.148Z,14.10
2022-11-23T07:20:14.178Z,14.18
2022-11-23T07:22:42.475Z,14.25
2022-11-23T07:25:11.553Z,14.18
2022-11-23T07:27:39.449Z,14.33
2022-11-23T07:30:08.720Z,14.37
2022-11-23T07:32:36.749Z,14.44
2022-11-23T07:35:05.023Z,14.49
2022-11-23T07:37:34.302Z,14.52
2022-11-23T07:40:03.338Z,14.54
2022-11-23T07:42:34.655Z,14.62
2022-11-23T07:45:03.896Z,14.65
2022-11-23T07:47:31.881Z,14.66
2022-11-23T07:49:59.761Z,14.71
2022-11-23T07:52:27.728Z,14.77
2022-11-23T07:54:57.080Z,14.77
2022-11-23T07:57:24.958Z,14.84
2022-11-23T07:59:52.837Z,14.86
2022-11-23T08:02:21.234Z,14.88
2022-11-23T08:04:49.158Z,14.93
2022-11-23T08:07:17.042Z,14.98
2022-11-23T08:09:45.011Z,15.02
2022-11-23T08:12:14.339Z,15.05
2022-11-23T08:14:42.254Z,15.09
2022-11-23T08:17:10.559Z,15.08
2022-11-23T08:19:38.552Z,15.17
2022-11-23T08:22:06.515Z,15.18
2022-11-23T08:24:34.974Z,15.23
2022-11-23T08:27:03.009Z,15.24
2022-11-23T08:29:32.361Z,15.25
2022-11-23T08:32:00.316Z,15.33
2022-11-23T08:34:28.302Z,15.37
2022-11-23T08:36:56.223Z,15.45
2022-11-23T08:39:24.176Z,15.51
2022-11-23T08:41:52.087Z,15.52
2022-11-23T08:44:20.058Z,15.53
2022-11-23T08:46:49.314Z,15.58
2022-11-23T08:49:20.169Z,15.60
2022-11-23T08:51:50.289Z,15.61
2022-11-23T08:54:18.448Z,15.66
2022-11-23T08:56:46.504Z,15.70
2022-11-23T08:59:14.461Z,15.72
2022-11-23T09:01:42.412Z,15.73
2022-11-23T09:04:16.393Z,15.76
2022-11-23T09:06:47.093Z,15.76
2022-11-23T09:09:15.101Z,15.75
2022-11-23T09:11:43.046Z,15.74
2022-11-23T09:14:10.941Z,15.71
2022-11-23T09:16:38.937Z,15.70
2022-11-23T09:19:07.270Z,15.71
2022-11-23T09:21:39.195Z,15.70
2022-11-23T09:24:07.629Z,15.73
2022-11-23T09:26:37.599Z,15.76
2022-11-23T09:29:05.608Z,15.77
2022-11-23T09:31:33.482Z,15.78
2022-11-23T09:34:01.379Z,15.79
2022-11-23T09:36:29.291Z,15.77
2022-11-23T09:38:58.552Z,15.68
2022-11-23T09:41:46.592Z,15.63
2022-11-23T09:44:16.873Z,15.61
2022-11-23T09:46:50.381Z,15.59
2022-11-23T09:49:19.008Z,15.57
2022-11-23T09:51:48.030Z,15.57
2022-11-23T09:54:23.843Z,15.60
2022-11-23T09:56:54.834Z,15.70
2022-11-23T09:59:36.474Z,15.89
2022-11-23T10:02:04.509Z,16.00
2022-11-23T10:04:35.532Z,16.12
2022-11-23T10:07:12.160Z,16.15
2022-11-23T10:09:45.157Z,16.41
2022-11-23T10:12:29.264Z,16.55
2022-11-23T10:15:11.153Z,16.56
2022-11-23T10:17:51.165Z,16.50
2022-11-23T10:20:26.561Z,16.45
2022-11-23T10:22:58.543Z,16.43
2022-11-23T10:25:29.001Z,16.51
2022-11-23T10:27:59.784Z,16.66
2022-11-23T10:30:27.687Z,16.87
2022-11-23T10:32:58.072Z,17.02
2022-11-23T10:35:28.758Z,17.06
2022-11-23T10:38:02.918Z,16.98
2022-11-23T10:40:32.209Z,16.79
2022-11-23T10:43:01.732Z,16.66
2022-11-23T10:45:29.954Z,16.56
2022-11-23T10:47:58.944Z,16.62
2022-11-23T10:50:30.085Z,16.88
2022-11-23T10:52:58.881Z,17.02
2022-11-23T10:55:29.487Z,16.91
2022-11-23T10:57:58.835Z,17.21
2022-11-23T11:00:30.796Z,17.31
2022-11-23T11:02:59.584Z,17.09
2022-11-23T11:08:18.321Z,16.71
2022-11-23T11:10:50.058Z,16.59
2022-11-23T11:13:27.092Z,16.46
2022-11-23T11:15:56.398Z,16.20
2022-11-23T11:18:27.045Z,15.64
2022-11-23T11:20:58.773Z,15.19
2022-11-23T11:23:26.873Z,14.96
2022-11-23T11:26:04.740Z,15.03
2022-11-23T11:28:36.319Z,15.25
2022-11-23T11:31:10.770Z,15.55
2022-11-23T11:33:41.217Z,15.89
2022-11-23T11:36:09.052Z,15.93
2022-11-23T11:38:37.913Z,15.76
2022-11-23T11:41:07.766Z,16.04
2022-11-23T11:43:40.211Z,16.40
2022-11-23T11:46:28.563Z,16.71
2022-11-23T11:48:58.275Z,17.08
2022-11-23T11:51:28.901Z,17.50
2022-11-23T11:53:58.792Z,17.98
2022-11-23T11:56:30.416Z,18.52
2022-11-23T11:59:02.672Z,18.95
2022-11-23T12:01:39.249Z,19.16
2022-11-23T12:04:08.332Z,19.12
2022-11-23T12:06:38.948Z,18.95
2022-11-23T12:09:11.139Z,18.90
2022-11-23T12:11:39.087Z,18.91
2022-11-23T12:14:13.011Z,18.82
2022-11-23T12:16:44.848Z,18.63
2022-11-23T12:19:16.628Z,18.47
2022-11-23T12:22:15.858Z,18.25
2022-11-23T12:24:55.216Z,18.39
2022-11-23T12:27:26.854Z,18.63
2022-11-23T12:30:03.234Z,18.81
2022-11-23T12:32:35.415Z,18.93
2022-11-23T12:35:14.677Z,18.88
2022-11-23T12:37:49.199Z,18.91
2022-11-23T12:40:40.434Z,18.93
2022-11-23T12:43:13.172Z,19.06
2022-11-23T12:45:48.437Z,19.20
2022-11-23T12:48:30.034Z,19.34
2022-11-23T12:51:01.535Z,19.37
2022-11-23T12:53:34.990Z,19.45
2022-11-23T12:56:07.539Z,19.42
2022-11-23T12:58:35.788Z,19.30
2022-11-23T13:01:07.428Z,19.10
2022-11-23T13:04:12.035Z,18.72
2022-11-23T13:07:38.299Z,18.52
2022-11-23T13:10:24.220Z,18.75
2022-11-23T13:13:06.984Z,18.82
2022-11-23T13:15:45.890Z,18.80
2022-11-23T13:18:18.039Z,18.78
2022-11-23T13:21:10.022Z,18.89
2022-11-23T13:23:38.135Z,18.83
2022-11-23T13:26:18.873Z,18.70
2022-11-23T13:28:46.944Z,18.74
2022-11-23T13:31:25.856Z,18.94
2022-11-23T13:33:56.536Z,19.18
2022-11-23T13:37:15.296Z,19.47
2022-11-23T13:40:03.664Z,19.50
2022-11-23T13:42:33.299Z,19.13
2022-11-23T13:45:28.457Z,18.71
2022-11-23T13:48:41.232Z,18.22
2022-11-23T13:51:04.432Z,17.86
2022-11-23T13:53:33.778Z,17.63
2022-11-23T13:56:17.729Z,17.41
2022-11-23T13:58:51.941Z,17.28
2022-11-23T14:01:52.981Z,17.13
2022-11-23T14:04:21.401Z,17.00
2022-11-23T14:06:52.524Z,16.88
2022-11-23T14:09:23.484Z,16.84
2022-11-23T14:11:59.788Z,16.74
2022-11-23T14:14:29.776Z,16.72
2022-11-23T14:17:17.163Z,16.71
2022-11-23T14:19:50.438Z,17.31
2022-11-23T14:22:23.348Z,17.42
2022-11-23T14:25:14.518Z,17.59
2022-11-23T14:27:48.426Z,17.88
2022-11-23T14:30:42.198Z,18.06
2022-11-23T14:33:17.759Z,18.37
2022-11-23T14:35:49.235Z,18.53
2022-11-23T14:38:35.640Z,18.32
2022-11-23T14:41:07.614Z,18.27
2022-11-23T14:43:35.671Z,18.23
2022-11-23T14:46:04.268Z,18.16
2022-11-23T14:48:32.851Z,18.06
2022-11-23T14:51:01.644Z,17.95
2022-11-23T14:53:34.016Z,17.76
2022-11-23T14:56:02.079Z,17.66
2022-11-23T14:58:31.795Z,17.52
2022-11-23T15:01:00.469Z,17.41
2022-11-23T15:06:18.110Z,17.20
2022-11-23T15:08:49.569Z,17.14
2022-11-23T15:11:21.136Z,17.22
2022-11-23T15:13:50.496Z,17.38
2022-11-23T15:16:20.350Z,17.41
2022-11-23T15:18:48.522Z,17.38
2022-11-23T15:21:26.556Z,17.36
2022-11-23T15:23:58.058Z,17.26
2022-11-23T15:26:46.798Z,17.04
2022-11-23T15:29:30.219Z,16.98
2022-11-23T15:34:46.292Z,16.79
2022-11-23T15:37:14.404Z,16.74
2022-11-23T15:39:44.217Z,16.69
2022-11-23T15:42:12.225Z,16.67
2022-11-23T15:44:40.094Z,16.57
2022-11-23T15:47:08.099Z,16.42
2022-11-23T15:49:38.259Z,16.26
2022-11-23T15:52:06.224Z,16.21
2022-11-23T15:54:35.885Z,16.17
2022-11-23T15:57:07.827Z,16.18
2022-11-23T15:59:39.240Z,16.21
2022-11-23T16:02:07.525Z,16.24
2022-11-23T16:04:37.911Z,16.29
2022-11-23T16:07:16.560Z,16.34
2022-11-23T16:09:52.400Z,16.33
2022-11-23T16:12:25.643Z,16.27
2022-11-23T16:14:53.881Z,16.37
2022-11-23T16:17:23.666Z,16.34
2022-11-23T16:19:52.203Z,16.32
2022-11-23T16:22:25.882Z,16.32
2022-11-23T16:24:55.803Z,16.33
2022-11-23T16:27:25.868Z,16.35
2022-11-23T16:29:56.539Z,16.40
2022-11-23T16:32:28.906Z,16.41
2022-11-23T16:34:57.001Z,16.36
2022-11-23T16:37:26.363Z,16.35
2022-11-23T16:39:54.259Z,16.36
2022-11-23T16:42:22.135Z,16.40
2022-11-23T16:44:51.537Z,16.35
2022-11-23T16:47:24.310Z,16.17
2022-11-23T16:49:52.415Z,15.92
2022-11-23T16:52:20.281Z,15.81
2022-11-23T16:54:48.250Z,15.74
2022-11-23T16:57:19.539Z,15.67
2022-11-23T16:59:47.447Z,15.61
2022-11-23T17:02:16.962Z,15.61
2022-11-23T17:04:45.511Z,15.56
2022-11-23T17:07:13.488Z,15.56
2022-11-23T17:09:41.405Z,15.57
2022-11-23T17:12:12.092Z,15.64
2022-11-23T17:14:40.677Z,15.68
2022-11-23T17:17:11.826Z,15.70
2022-11-23T17:19:41.177Z,15.70
2022-11-23T17:22:09.043Z,15.72
2022-11-23T17:24:36.926Z,15.74
2022-11-23T17:27:04.770Z,15.73
2022-11-23T17:29:35.570Z,15.74
2022-11-23T17:32:06.628Z,15.72
2022-11-23T17:34:34.598Z,15.73
2022-11-23T17:37:03.798Z,15.71
2022-11-23T17:39:31.956Z,15.71
2022-11-23T17:42:04.606Z,15.68
2022-11-23T17:44:33.168Z,15.65
2022-11-23T17:47:02.525Z,15.67
2022-11-23T17:49:31.160Z,15.66
2022-11-23T17:51:59.372Z,15.67
2022-11-23T17:54:28.748Z,15.65
2022-11-23T17:56:57.746Z,15.69
2022-11-23T17:59:25.658Z,15.78
2022-11-23T18:01:53.624Z,15.79
2022-11-23T18:04:22.087Z,15.80
2022-11-23T18:06:50.041Z,15.75
2022-11-23T18:09:18.277Z,15.75
2022-11-23T18:11:47.603Z,15.71
2022-11-23T18:14:15.577Z,15.71
2022-11-23T18:16:43.555Z,15.69
2022-11-23T18:19:11.755Z,15.67
2022-11-23T18:21:39.753Z,15.69
2022-11-23T18:24:08.909Z,15.70
2022-11-23T18:26:36.930Z,15.71
2022-11-23T18:29:06.478Z,15.72
2022-11-23T18:31:34.553Z,15.71
2022-11-23T18:34:02.956Z,15.71
2022-11-23T18:36:30.888Z,15.68
2022-11-23T18:38:59.249Z,15.67
2022-11-23T18:41:27.222Z,15.67
2022-11-23T18:43:55.167Z,15.68
2022-11-23T18:46:24.593Z,15.67
2022-11-23T18:48:53.517Z,15.70
2022-11-23T18:51:21.463Z,15.71
2022-11-23T18:53:50.966Z,15.72
2022-11-23T18:56:19.348Z,15.76
2022-11-23T18:58:47.748Z,15.73
2022-11-23T19:01:17.764Z,15.74
2022-11-23T19:03:47.768Z,15.72
2022-11-23T19:06:16.270Z,15.73
2022-11-23T19:08:44.969Z,15.70
2022-11-23T19:11:17.521Z,15.60
2022-11-23T19:13:45.969Z,15.17
2022-11-23T19:16:14.567Z,14.72
2022-11-23T19:18:42.531Z,14.40
2022-11-23T19:21:15.811Z,14.10
2022-11-23T19:23:43.932Z,13.96
2022-11-23T19:26:11.882Z,13.77
2022-11-23T19:28:44.563Z,13.98
2022-11-23T19:31:13.764Z,14.06
2022-11-23T19:33:41.910Z,14.19
2022-11-23T19:36:10.934Z,14.31
2022-11-23T19:38:40.200Z,14.41
2022-11-23T19:41:08.157Z,14.52
2022-11-23T19:43:36.071Z,14.62
2022-11-23T19:46:05.327Z,14.71
2022-11-23T19:48:33.938Z,14.80
2022-11-23T19:51:02.472Z,14.68
2022-11-23T19:53:31.294Z,14.94
2022-11-23T19:56:03.864Z,15.02
2022-11-23T19:58:34.405Z,15.07
2022-11-23T20:01:02.471Z,15.13
2022-11-23T20:03:30.612Z,15.18
2022-11-23T20:05:59.388Z,15.24
2022-11-23T20:08:28.076Z,15.28
2022-11-23T20:10:56.181Z,15.33
2022-11-23T20:13:25.625Z,15.34
2022-11-23T20:15:53.634Z,15.02
2022-11-23T20:18:25.582Z,14.64
2022-11-23T20:20:56.369Z,14.34
2022-11-23T20:23:24.305Z,14.20
2022-11-23T20:25:52.170Z,14.12
2022-11-23T20:28:20.100Z,13.92
2022-11-23T20:30:50.879Z,13.91
2022-11-23T20:33:19.517Z,13.76
2022-11-23T20:35:47.826Z,13.63
2022-11-23T20:38:17.422Z,13.58
2022-11-23T20:40:45.344Z,13.56
2022-11-23T20:43:13.498Z,13.49
2022-11-23T20:45:41.529Z,13.44
2022-11-23T20:48:10.841Z,13.38
2022-11-23T20:50:39.179Z,13.37
2022-11-23T20:53:07.095Z,13.28
2022-11-23T20:55:35.011Z,13.09
2022-11-23T20:58:02.852Z,12.87
2022-11-23T21:00:30.930Z,12.67
2022-11-23T21:02:59.045Z,12.50
2022-11-23T21:05:28.507Z,12.37
2022-11-23T21:07:56.626Z,12.26
2022-11-23T21:10:42.277Z,12.35
2022-11-23T21:13:49.332Z,12.30
2022-11-23T21:16:18.287Z,12.42
2022-11-23T21:18:46.271Z,12.46
2022-11-23T21:21:15.543Z,12.51
2022-11-23T21:23:46.044Z,12.57
2022-11-23T21:26:16.150Z,12.63
2022-11-23T21:28:44.446Z,12.69
2022-11-23T21:31:15.141Z,12.77
2022-11-23T21:33:43.333Z,12.92
2022-11-23T21:36:11.933Z,13.06
2022-11-23T21:38:41.267Z,13.18
2022-11-23T21:41:10.760Z,13.31
2022-11-23T21:43:39.088Z,13.45
2022-11-23T21:46:08.165Z,13.63
2022-11-23T21:48:36.336Z,13.77
2022-11-23T21:51:04.923Z,13.92
2022-11-23T21:53:32.954Z,14.02
2022-11-23T21:56:06.651Z,14.15
2022-11-23T21:58:34.721Z,14.22
2022-11-23T22:01:06.274Z,14.28
2022-11-23T22:03:37.500Z,14.32
2022-11-23T22:06:05.490Z,14.40
2022-11-23T22:08:33.593Z,14.34
2022-11-23T22:11:01.640Z,14.50
2022-11-23T22:13:36.612Z,14.58
2022-11-23T22:16:12.681Z,14.65
2022-11-23T22:18:40.719Z,14.67
2022-11-23T22:21:09.427Z,14.68
2022-11-23T22:23:37.679Z,14.69
2022-11-23T22:26:06.102Z,14.67
2022-11-23T22:28:35.499Z,14.69
2022-11-23T22:31:03.925Z,14.70
2022-11-23T22:33:32.054Z,14.76
2022-11-23T22:36:01.439Z,14.79
2022-11-23T22:38:29.780Z,14.84
2022-11-23T22:40:57.705Z,14.92
2022-11-23T22:43:25.679Z,14.93
2022-11-23T22:45:55.028Z,14.91
2022-11-23T22:48:23.018Z,14.93
2022-11-23T22:50:57.379Z,14.93
2022-11-23T22:53:25.378Z,14.99
2022-11-23T22:55:53.523Z,15.02
2022-11-23T22:58:21.516Z,15.09
2022-11-23T23:00:49.535Z,15.12
2022-11-23T23:03:19.112Z,15.19
2022-11-23T23:05:54.854Z,15.21
2022-11-23T23:08:23.246Z,15.22
2022-11-23T23:10:51.187Z,15.01
2022-11-23T23:13:19.273Z,14.77
2022-11-23T23:15:47.307Z,14.63
2022-11-23T23:18:15.769Z,14.57
2022-11-23T23:20:45.223Z,14.54
2022-11-23T23:23:13.858Z,14.54
2022-11-23T23:25:41.956Z,14.59
2022-11-23T23:28:10.246Z,14.62
2022-11-23T23:30:38.179Z,14.66
2022-11-23T23:33:06.119Z,14.73
2022-11-23T23:35:34.084Z,14.77
2022-11-23T23:38:03.371Z,14.81
2022-11-23T23:40:31.340Z,14.81
2022-11-23T23:42:59.248Z,14.77
2022-11-23T23:45:27.205Z,14.76
2022-11-23T23:47:55.173Z,14.76
2022-11-23T23:50:23.159Z,14.71
2022-11-23T23:52:51.120Z,14.69
2022-11-23T23:55:20.459Z,14.66
2022-11-23T23:57:48.493Z,14.67
